createdAt,value
2023-01-27T00:02:06.751Z,101622.16
2023-01-27T00:04:34.794Z,101618.49
2023-01-27T00:07:02.645Z,101617.91
2023-01-27T00:09:30.440Z,101607.18
2023-01-27T00:12:21.744Z,101610.55
2023-01-27T00:14:49.559Z,101609.77
2023-01-27T00:17:17.438Z,101619.31
2023-01-27T00:19:45.796Z,101605.80
2023-01-27T00:22:32.197Z,101606.10
2023-01-27T00:25:00.058Z,101606.37
2023-01-27T00:27:28.530Z,101606.89
2023-01-27T00:29:56.392Z,101604.37
2023-01-27T00:32:42.687Z,101600.41
2023-01-27T00:35:10.438Z,101599.89
2023-01-27T00:37:38.233Z,101600.41
2023-01-27T00:40:06.429Z,101602.12
2023-01-27T00:42:34.315Z,101597.60
2023-01-27T00:45:20.704Z,101594.20
2023-01-27T00:47:54.721Z,101588.02
2023-01-27T00:50:22.916Z,101591.62
2023-01-27T00:52:50.777Z,101597.24
2023-01-27T00:55:19.378Z,101595.02
2023-01-27T00:57:47.196Z,101592.20
2023-01-27T01:00:16.970Z,101599.27
2023-01-27T01:02:45.001Z,101595.31
2023-01-27T01:05:12.857Z,101597.30
2023-01-27T01:07:40.764Z,101591.09
2023-01-27T01:10:09.039Z,101599.79
2023-01-27T01:12:36.907Z,101591.91
2023-01-27T01:15:07.297Z,101606.04
2023-01-27T01:17:35.082Z,101597.02
2023-01-27T01:20:02.982Z,101606.33
2023-01-27T01:22:31.268Z,101594.73
2023-01-27T01:24:59.084Z,101602.08
2023-01-27T01:27:31.594Z,101594.49
2023-01-27T01:30:02.521Z,101597.83
2023-01-27T01:32:30.335Z,101590.24
2023-01-27T01:34:58.250Z,101595.02
2023-01-27T01:37:26.388Z,101599.53
2023-01-27T01:39:58.575Z,101601.49
2023-01-27T01:42:46.409Z,101594.73
2023-01-27T01:45:35.030Z,101590.51
2023-01-27T01:48:06.029Z,101585.73
2023-01-27T01:50:34.027Z,101587.95
2023-01-27T01:53:02.361Z,101586.29
2023-01-27T01:55:30.186Z,101584.55
2023-01-27T01:57:57.994Z,101574.19
2023-01-27T02:00:25.824Z,101572.75
2023-01-27T02:02:53.836Z,101567.65
2023-01-27T02:05:26.089Z,101573.27
2023-01-27T02:08:13.184Z,101566.54
2023-01-27T02:10:40.918Z,101570.17
2023-01-27T02:13:08.705Z,101564.84
2023-01-27T02:15:36.504Z,101563.40
2023-01-27T02:18:04.707Z,101558.56
2023-01-27T02:20:47.359Z,101562.78
2023-01-27T02:23:33.229Z,101555.20
2023-01-27T02:26:14.609Z,101557.71
2023-01-27T02:28:42.437Z,101560.82
2023-01-27T02:31:10.448Z,101550.68
2023-01-27T02:33:38.291Z,101564.48
2023-01-27T02:36:10.956Z,101556.30
2023-01-27T02:38:41.631Z,101559.38
2023-01-27T02:41:32.551Z,101558.56
2023-01-27T02:44:01.267Z,101553.49
2023-01-27T02:46:33.609Z,101554.61
2023-01-27T02:49:01.588Z,101555.45
2023-01-27T02:51:29.425Z,101558.01
2023-01-27T02:53:57.247Z,101546.23
2023-01-27T02:56:25.533Z,101553.23
2023-01-27T02:58:53.388Z,101550.42
2023-01-27T03:01:21.375Z,101539.44
2023-01-27T03:03:49.308Z,101541.13
2023-01-27T03:06:17.378Z,101539.40
2023-01-27T03:08:45.257Z,101535.74
2023-01-27T03:11:13.335Z,101541.63
2023-01-27T03:13:41.316Z,101542.67
2023-01-27T03:16:27.649Z,101538.20
2023-01-27T03:18:57.594Z,101548.00
2023-01-27T03:21:25.479Z,101555.06
2023-01-27T03:23:53.291Z,101544.05
2023-01-27T03:26:21.074Z,101553.33
2023-01-27T03:29:08.868Z,101544.27
2023-01-27T03:31:36.743Z,101552.19
2023-01-27T03:34:09.223Z,101551.04
2023-01-27T03:36:55.682Z,101550.75
2023-01-27T03:39:41.974Z,101552.19
2023-01-27T03:42:36.004Z,101550.48
2023-01-27T03:45:22.382Z,101560.62
2023-01-27T03:47:50.619Z,101562.26
2023-01-27T03:50:20.488Z,101551.60
2023-01-27T03:53:04.226Z,101559.77
2023-01-27T03:55:33.084Z,101550.48
2023-01-27T03:58:19.213Z,101552.19
2023-01-27T04:00:48.803Z,101557.48
2023-01-27T04:03:35.041Z,101556.63
2023-01-27T04:06:29.623Z,101554.93
2023-01-27T04:08:57.704Z,101547.02
2023-01-27T04:11:44.244Z,101541.69
2023-01-27T04:14:14.361Z,101543.06
2023-01-27T04:16:42.210Z,101552.61
2023-01-27T04:19:10.830Z,101549.21
2023-01-27T04:21:38.837Z,101548.88
2023-01-27T04:24:09.823Z,101540.77
2023-01-27T04:26:37.692Z,101540.19
2023-01-27T04:29:05.642Z,101551.44
2023-01-27T04:31:33.645Z,101548.88
2023-01-27T04:34:01.543Z,101551.96
2023-01-27T04:36:29.398Z,101559.54
2023-01-27T04:38:57.208Z,101559.54
2023-01-27T04:41:24.977Z,101553.07
2023-01-27T04:43:52.750Z,101548.59
2023-01-27T04:46:20.501Z,101542.97
2023-01-27T04:48:48.357Z,101542.12
2023-01-27T04:51:16.148Z,101541.59
2023-01-27T04:53:44.924Z,101551.70
2023-01-27T04:56:32.510Z,101528.71
2023-01-27T04:59:05.116Z,101536.30
2023-01-27T05:01:33.078Z,101545.81
2023-01-27T05:04:00.936Z,101543.52
2023-01-27T05:06:28.981Z,101547.48
2023-01-27T05:08:56.780Z,101547.74
2023-01-27T05:11:24.536Z,101546.34
2023-01-27T05:13:52.374Z,101543.29
2023-01-27T05:16:25.117Z,101555.69
2023-01-27T05:18:53.443Z,101562.13
2023-01-27T05:21:26.533Z,101554.57
2023-01-27T05:23:54.340Z,101558.76
2023-01-27T05:26:24.211Z,101547.55
2023-01-27T05:28:52.504Z,101545.81
2023-01-27T05:31:28.701Z,101542.48
2023-01-27T05:33:57.009Z,101549.21
2023-01-27T05:36:25.727Z,101534.04
2023-01-27T05:38:55.669Z,101531.23
2023-01-27T05:41:23.685Z,101539.40
2023-01-27T05:43:56.188Z,101536.07
2023-01-27T05:46:25.854Z,101552.09
2023-01-27T05:48:56.181Z,101542.54
2023-01-27T05:51:25.297Z,101546.46
2023-01-27T05:53:54.003Z,101547.31
2023-01-27T05:56:22.262Z,101553.46
2023-01-27T05:58:50.168Z,101565.30
2023-01-27T06:01:22.720Z,101562.75
2023-01-27T06:03:50.576Z,101573.73
2023-01-27T06:06:22.541Z,101567.59
2023-01-27T06:08:50.539Z,101570.62
2023-01-27T06:11:19.155Z,101577.62
2023-01-27T06:13:47.263Z,101580.20
2023-01-27T06:16:16.252Z,101578.48
2023-01-27T06:18:44.062Z,101583.84
2023-01-27T06:21:12.564Z,101586.65
2023-01-27T06:23:40.649Z,101589.20
2023-01-27T06:26:11.195Z,101594.82
2023-01-27T06:28:39.690Z,101599.86
2023-01-27T06:31:11.442Z,101609.14
2023-01-27T06:33:39.377Z,101604.63
2023-01-27T06:36:09.426Z,101604.89
2023-01-27T06:38:37.293Z,101602.67
2023-01-27T06:41:05.394Z,101595.34
2023-01-27T06:43:33.213Z,101595.67
2023-01-27T06:46:02.551Z,101599.34
2023-01-27T06:48:32.336Z,101595.41
2023-01-27T06:51:00.258Z,101608.62
2023-01-27T06:53:28.232Z,101610.84
2023-01-27T06:55:57.307Z,101613.91
2023-01-27T06:58:25.170Z,101621.24
2023-01-27T07:00:53.555Z,101616.47
2023-01-27T07:03:21.467Z,101620.39
2023-01-27T07:05:49.282Z,101632.48
2023-01-27T07:08:17.099Z,101624.87
2023-01-27T07:10:48.396Z,101625.16
2023-01-27T07:13:16.335Z,101626.54
2023-01-27T07:15:44.194Z,101624.05
2023-01-27T07:18:13.087Z,101628.53
2023-01-27T07:20:41.545Z,101633.60
2023-01-27T07:23:10.439Z,101629.35
2023-01-27T07:25:38.667Z,101633.53
2023-01-27T07:28:07.006Z,101632.39
2023-01-27T07:30:38.747Z,101641.12
2023-01-27T07:33:11.553Z,101631.57
2023-01-27T07:35:39.991Z,101631.31
2023-01-27T07:38:08.074Z,101631.87
2023-01-27T07:40:36.450Z,101637.49
2023-01-27T07:43:04.300Z,101643.12
2023-01-27T07:45:32.172Z,101655.48
2023-01-27T07:48:07.310Z,101653.28
2023-01-27T07:50:36.048Z,101656.65
2023-01-27T07:53:04.796Z,101663.16
2023-01-27T07:55:33.606Z,101659.20
2023-01-27T07:58:01.469Z,101665.97
2023-01-27T08:00:30.227Z,101652.99
2023-01-27T08:02:58.959Z,101661.75
2023-01-27T08:05:27.085Z,101653.84
2023-01-27T08:07:57.124Z,101655.28
2023-01-27T08:10:26.309Z,101643.80
2023-01-27T08:12:54.179Z,101657.56
2023-01-27T08:15:23.110Z,101653.38
2023-01-27T08:18:00.156Z,101655.60
2023-01-27T08:20:28.506Z,101655.60
2023-01-27T08:22:56.407Z,101650.50
2023-01-27T08:25:24.268Z,101661.49
2023-01-27T08:27:52.856Z,101669.66
2023-01-27T08:30:20.961Z,101656.72
2023-01-27T08:32:49.134Z,101659.59
2023-01-27T08:35:17.399Z,101656.26
2023-01-27T08:37:47.951Z,101661.91
2023-01-27T08:40:26.511Z,101661.69
2023-01-27T08:42:54.428Z,101663.29
2023-01-27T08:45:22.320Z,101654.03
2023-01-27T08:47:53.784Z,101661.26
2023-01-27T08:50:21.813Z,101662.44
2023-01-27T08:52:49.764Z,101670.05
2023-01-27T08:55:17.679Z,101673.42
2023-01-27T08:57:45.503Z,101673.85
2023-01-27T09:00:14.377Z,101681.34
2023-01-27T09:02:42.595Z,101677.34
2023-01-27T09:05:11.037Z,101673.36
2023-01-27T09:07:38.829Z,101667.70
2023-01-27T09:10:14.574Z,101672.73
2023-01-27T09:12:43.844Z,101666.52
2023-01-27T09:15:13.162Z,101673.00
2023-01-27T09:17:41.069Z,101676.07
2023-01-27T09:20:09.538Z,101678.63
2023-01-27T09:22:38.461Z,101669.92
2023-01-27T09:25:06.587Z,101674.77
2023-01-27T09:27:39.574Z,101681.17
2023-01-27T09:30:10.537Z,101682.88
2023-01-27T09:32:38.676Z,101684.51
2023-01-27T09:35:06.857Z,101685.95
2023-01-27T09:37:35.541Z,101682.88
2023-01-27T09:40:05.191Z,101692.42
2023-01-27T09:42:32.853Z,101693.30
2023-01-27T09:45:19.902Z,101689.61
2023-01-27T09:47:52.144Z,101691.05
2023-01-27T09:50:32.643Z,101698.66
2023-01-27T09:53:15.178Z,101681.76
2023-01-27T09:55:57.841Z,101695.59
2023-01-27T09:58:57.739Z,101695.92
2023-01-27T10:01:34.877Z,101691.15
2023-01-27T10:04:29.278Z,101706.94
2023-01-27T10:07:05.942Z,101691.18
2023-01-27T10:10:04.759Z,101698.83
2023-01-27T10:12:35.266Z,101695.49
2023-01-27T10:15:12.568Z,101694.64
2023-01-27T10:18:07.637Z,101692.16
2023-01-27T10:20:37.388Z,101688.76
2023-01-27T10:23:21.659Z,101695.49
2023-01-27T10:26:09.759Z,101687.94
2023-01-27T10:28:37.686Z,101692.84
2023-01-27T10:31:38.783Z,101705.17
2023-01-27T10:34:14.431Z,101704.65
2023-01-27T10:37:14.923Z,101697.95
2023-01-27T10:39:47.967Z,101696.80
2023-01-27T10:42:27.758Z,101705.80
2023-01-27T10:45:19.972Z,101702.20
2023-01-27T10:48:23.953Z,101698.83
2023-01-27T10:51:03.211Z,101696.31
2023-01-27T10:53:41.353Z,101689.84
2023-01-27T10:56:13.933Z,101691.83
2023-01-27T10:59:12.350Z,101692.13
2023-01-27T11:01:47.829Z,101692.13
2023-01-27T11:04:37.399Z,101685.36
2023-01-27T11:07:05.456Z,101688.46
2023-01-27T11:09:38.742Z,101691.54
2023-01-27T11:12:10.564Z,101689.02
2023-01-27T11:14:52.191Z,101687.05
2023-01-27T11:17:30.714Z,101697.78
2023-01-27T11:20:19.277Z,101708.21
2023-01-27T11:23:14.128Z,101703.96
2023-01-27T11:25:47.839Z,101703.11
2023-01-27T11:28:26.081Z,101705.04
2023-01-27T11:31:22.922Z,101714.00
2023-01-27T11:34:07.388Z,101718.12
2023-01-27T11:36:35.710Z,101712.40
2023-01-27T11:39:05.929Z,101714.91
2023-01-27T11:41:35.136Z,101714.33
2023-01-27T11:44:09.123Z,101708.96
2023-01-27T11:46:37.366Z,101705.83
2023-01-27T11:49:05.188Z,101707.79
2023-01-27T11:51:51.191Z,101713.18
2023-01-27T11:54:26.388Z,101705.47
2023-01-27T11:56:54.325Z,101697.59
2023-01-27T11:59:27.521Z,101698.96
2023-01-27T12:01:58.365Z,101694.77
2023-01-27T12:05:05.481Z,101696.77
2023-01-27T12:07:36.352Z,101690.06
2023-01-27T12:10:05.092Z,101694.32
2023-01-27T12:12:33.033Z,101697.98
2023-01-27T12:15:01.575Z,101692.35
2023-01-27T12:17:36.760Z,101690.13
2023-01-27T12:20:18.823Z,101686.99
2023-01-27T12:22:49.540Z,101681.08
2023-01-27T12:25:21.217Z,101686.17
2023-01-27T12:27:53.406Z,101687.87
2023-01-27T12:30:39.209Z,101690.69
2023-01-27T12:33:14.485Z,101681.40
2023-01-27T12:35:42.730Z,101673.55
2023-01-27T12:38:16.311Z,101669.30
2023-01-27T12:40:45.281Z,101665.35
2023-01-27T12:43:16.713Z,101669.04
2023-01-27T12:45:44.714Z,101679.41
2023-01-27T12:48:15.341Z,101667.87
2023-01-27T12:50:55.905Z,101663.06
2023-01-27T12:53:28.929Z,101661.39
2023-01-27T12:56:09.252Z,101661.69
2023-01-27T12:58:41.580Z,101653.84
2023-01-27T13:01:21.593Z,101667.08
2023-01-27T13:03:58.389Z,101656.36
2023-01-27T13:06:35.938Z,101654.91
2023-01-27T13:09:03.729Z,101665.05
2023-01-27T13:11:38.545Z,101671.53
2023-01-27T13:14:09.572Z,101661.91
2023-01-27T13:16:37.412Z,101668.68
2023-01-27T13:19:19.456Z,101678.20
2023-01-27T13:21:51.426Z,101674.83
2023-01-27T13:24:29.569Z,101671.76
2023-01-27T13:26:57.355Z,101675.38
2023-01-27T13:29:29.907Z,101681.01
2023-01-27T13:32:00.631Z,101672.80
2023-01-27T13:34:48.774Z,101666.95
2023-01-27T13:37:48.892Z,101666.10
2023-01-27T13:40:23.321Z,101670.91
2023-01-27T13:42:54.726Z,101675.74
2023-01-27T13:45:52.614Z,101669.56
2023-01-27T13:48:22.820Z,101676.66
2023-01-27T13:51:18.439Z,101676.43
2023-01-27T13:53:48.406Z,101673.33
2023-01-27T13:56:38.338Z,101676.73
2023-01-27T13:59:41.979Z,101676.73
2023-01-27T14:02:47.444Z,101680.62
2023-01-27T14:05:30.541Z,101672.77
2023-01-27T14:08:20.910Z,101676.98
2023-01-27T14:11:09.946Z,101682.58
2023-01-27T14:13:59.083Z,101681.40
2023-01-27T14:16:33.401Z,101693.50
2023-01-27T14:19:28.370Z,101695.76
2023-01-27T14:22:24.101Z,101694.91
2023-01-27T14:25:22.809Z,101692.65
2023-01-27T14:28:10.186Z,101692.65
2023-01-27T14:30:44.000Z,101678.59
2023-01-27T14:33:22.472Z,101681.92
2023-01-27T14:35:57.619Z,101689.28
2023-01-27T14:38:32.816Z,101689.58
2023-01-27T14:41:09.633Z,101699.71
2023-01-27T14:43:58.700Z,101693.56
2023-01-27T14:46:43.996Z,101701.41
2023-01-27T14:49:46.832Z,101701.94
2023-01-27T14:52:18.285Z,101703.66
2023-01-27T14:54:55.269Z,101700.86
2023-01-27T14:57:32.564Z,101698.05
2023-01-27T15:00:14.245Z,101702.52
2023-01-27T15:02:57.589Z,101702.30
2023-01-27T15:05:40.714Z,101706.25
2023-01-27T15:08:15.480Z,101708.77
2023-01-27T15:11:09.438Z,101705.11
2023-01-27T15:13:55.720Z,101709.84
2023-01-27T15:16:32.437Z,101714.39
2023-01-27T15:19:03.056Z,101721.39
2023-01-27T15:22:19.355Z,101720.80
2023-01-27T15:24:47.130Z,101726.72
2023-01-27T15:27:15.051Z,101734.66
2023-01-27T15:29:42.871Z,101731.27
2023-01-27T15:32:16.592Z,101734.08
2023-01-27T15:34:45.545Z,101734.66
2023-01-27T15:37:26.620Z,101739.18
2023-01-27T15:40:03.991Z,101745.36
2023-01-27T15:43:03.307Z,101743.62
2023-01-27T15:45:32.905Z,101743.62
2023-01-27T15:48:28.406Z,101743.69
2023-01-27T15:51:06.536Z,101743.69
2023-01-27T15:53:41.135Z,101749.31
2023-01-27T15:56:09.195Z,101758.04
2023-01-27T15:58:40.870Z,101769.29
2023-01-27T16:01:11.450Z,101765.04
2023-01-27T16:03:45.976Z,101760.52
2023-01-27T16:06:18.263Z,101760.49
2023-01-27T16:08:50.283Z,101761.31
2023-01-27T16:11:30.238Z,101758.76
2023-01-27T16:14:13.273Z,101771.97
2023-01-27T16:16:42.126Z,101781.29
2023-01-27T16:19:12.847Z,101784.36
2023-01-27T16:21:40.583Z,101776.77
2023-01-27T16:24:41.088Z,101781.48
2023-01-27T16:27:10.072Z,101788.25
2023-01-27T16:29:50.747Z,101789.07
2023-01-27T16:32:23.024Z,101786.55
2023-01-27T16:34:53.416Z,101777.76
2023-01-27T16:37:25.717Z,101787.86
2023-01-27T16:40:08.098Z,101790.67
2023-01-27T16:42:38.077Z,101785.24
2023-01-27T16:45:16.465Z,101786.62
2023-01-27T16:47:50.488Z,101775.11
2023-01-27T16:50:44.297Z,101782.11
2023-01-27T16:53:23.208Z,101780.93
2023-01-27T16:56:04.691Z,101787.44
2023-01-27T16:58:45.605Z,101785.18
2023-01-27T17:01:23.300Z,101791.06
2023-01-27T17:03:51.214Z,101796.20
2023-01-27T17:06:19.151Z,101794.47
2023-01-27T17:08:50.158Z,101797.24
2023-01-27T17:11:21.923Z,101800.58
2023-01-27T17:13:54.572Z,101802.54
2023-01-27T17:16:36.360Z,101812.58
2023-01-27T17:19:18.136Z,101804.47
2023-01-27T17:21:49.316Z,101811.86
2023-01-27T17:24:21.764Z,101812.38
2023-01-27T17:26:50.675Z,101810.68
2023-01-27T17:29:22.783Z,101816.93
2023-01-27T17:31:50.957Z,101812.16
2023-01-27T17:34:22.403Z,101811.86
2023-01-27T17:37:18.855Z,101812.74
2023-01-27T17:39:46.973Z,101816.93
2023-01-27T17:42:19.150Z,101814.67
2023-01-27T17:44:47.737Z,101816.63
2023-01-27T17:47:20.042Z,101816.41
2023-01-27T17:49:49.594Z,101821.44
2023-01-27T17:52:20.971Z,101816.08
2023-01-27T17:54:48.738Z,101817.48
2023-01-27T17:57:33.805Z,101822.23
2023-01-27T18:00:34.045Z,101819.22
2023-01-27T18:03:04.851Z,101822.06
2023-01-27T18:05:34.094Z,101819.02
2023-01-27T18:08:02.730Z,101822.06
2023-01-27T18:10:37.927Z,101826.02
2023-01-27T18:13:21.056Z,101824.35
2023-01-27T18:15:49.790Z,101837.85
2023-01-27T18:18:21.704Z,101830.50
2023-01-27T18:20:59.186Z,101837.00
2023-01-27T18:23:29.088Z,101841.22
2023-01-27T18:26:08.610Z,101847.99
2023-01-27T18:28:39.006Z,101858.38
2023-01-27T18:31:16.689Z,101853.02
2023-01-27T18:34:00.940Z,101857.27
2023-01-27T18:36:36.991Z,101860.05
2023-01-27T18:39:33.845Z,101863.09
2023-01-27T18:42:03.181Z,101867.54
2023-01-27T18:44:38.268Z,101870.55
2023-01-27T18:47:18.343Z,101861.23
2023-01-27T18:49:49.197Z,101857.93
2023-01-27T18:52:20.478Z,101863.55
2023-01-27T18:54:54.417Z,101858.52
2023-01-27T18:57:25.052Z,101872.35
2023-01-27T18:59:52.995Z,101876.56
2023-01-27T19:02:22.628Z,101870.68
2023-01-27T19:04:50.701Z,101868.49
2023-01-27T19:07:20.679Z,101863.68
2023-01-27T19:09:53.384Z,101870.95
2023-01-27T19:12:31.898Z,101871.53
2023-01-27T19:15:04.493Z,101874.34
2023-01-27T19:17:37.839Z,101884.77
2023-01-27T19:20:18.074Z,101883.63
2023-01-27T19:22:50.546Z,101883.40
2023-01-27T19:25:23.523Z,101887.91
2023-01-27T19:28:06.430Z,101884.25
2023-01-27T19:30:38.593Z,101887.91
2023-01-27T19:33:36.157Z,101883.92
2023-01-27T19:36:47.021Z,101892.88
2023-01-27T19:39:16.732Z,101894.22
2023-01-27T19:41:53.992Z,101892.55
2023-01-27T19:44:31.791Z,101894.55
2023-01-27T19:47:12.287Z,101888.08
2023-01-27T19:49:50.772Z,101893.21
2023-01-27T19:52:21.645Z,101896.02
2023-01-27T19:54:54.474Z,101897.98
2023-01-27T19:57:22.364Z,101902.49
2023-01-27T19:59:54.639Z,101898.02
2023-01-27T20:02:22.545Z,101898.90
2023-01-27T20:04:50.414Z,101894.45
2023-01-27T20:07:18.229Z,101900.30
2023-01-27T20:09:46.110Z,101898.31
2023-01-27T20:12:16.299Z,101904.78
2023-01-27T20:14:44.572Z,101900.83
2023-01-27T20:17:15.253Z,101902.56
2023-01-27T20:19:43.525Z,101897.20
2023-01-27T20:22:17.340Z,101899.16
2023-01-27T20:24:47.006Z,101894.13
2023-01-27T20:27:25.664Z,101896.94
2023-01-27T20:29:56.419Z,101891.54
2023-01-27T20:32:25.656Z,101901.97
2023-01-27T20:35:15.970Z,101898.31
2023-01-27T20:37:46.468Z,101895.20
2023-01-27T20:40:16.161Z,101901.71
2023-01-27T20:42:44.103Z,101898.63
2023-01-27T20:45:12.354Z,101900.59
2023-01-27T20:47:40.335Z,101904.78
2023-01-27T20:50:10.841Z,101905.05
2023-01-27T20:52:38.765Z,101905.89
2023-01-27T20:55:06.979Z,101897.46
2023-01-27T20:57:35.570Z,101909.78
2023-01-27T21:00:03.360Z,101904.16
2023-01-27T21:02:31.520Z,101914.33
2023-01-27T21:04:59.444Z,101914.33
2023-01-27T21:07:27.332Z,101916.03
2023-01-27T21:09:56.239Z,101914.66
2023-01-27T21:12:24.143Z,101919.17
2023-01-27T21:14:52.136Z,101913.28
2023-01-27T21:17:19.984Z,101913.55
2023-01-27T21:19:48.170Z,101908.77
2023-01-27T21:22:16.305Z,101907.07
2023-01-27T21:24:44.472Z,101902.82
2023-01-27T21:27:12.933Z,101903.41
2023-01-27T21:29:42.876Z,101906.22
2023-01-27T21:32:10.930Z,101902.56
2023-01-27T21:34:38.775Z,101909.30
2023-01-27T21:37:06.614Z,101910.15
2023-01-27T21:39:34.626Z,101903.48
2023-01-27T21:42:02.452Z,101903.73
2023-01-27T21:44:49.350Z,101912.70
2023-01-27T21:47:21.270Z,101907.07
2023-01-27T21:50:05.147Z,101907.66
2023-01-27T21:52:40.349Z,101904.26
2023-01-27T21:55:13.216Z,101913.02
2023-01-27T21:57:41.403Z,101905.30
2023-01-27T22:00:11.589Z,101903.60
2023-01-27T22:02:39.538Z,101909.23
2023-01-27T22:05:07.809Z,101913.48
2023-01-27T22:07:39.350Z,101910.41
2023-01-27T22:10:08.605Z,101913.22
2023-01-27T22:12:36.448Z,101912.70
2023-01-27T22:15:04.492Z,101910.73
2023-01-27T22:17:32.298Z,101913.55
2023-01-27T22:20:00.139Z,101915.28
2023-01-27T22:22:28.041Z,101912.70
2023-01-27T22:24:56.012Z,101911.95
2023-01-27T22:27:23.978Z,101913.88
2023-01-27T22:29:51.771Z,101919.49
2023-01-27T22:32:19.788Z,101918.13
2023-01-27T22:34:49.000Z,101913.35
2023-01-27T22:37:16.951Z,101912.76
2023-01-27T22:39:44.752Z,101919.56
2023-01-27T22:42:12.620Z,101923.75
2023-01-27T22:44:40.512Z,101922.14
2023-01-27T22:47:08.368Z,101923.52
2023-01-27T22:49:36.245Z,101918.71
2023-01-27T22:52:04.266Z,101921.55
2023-01-27T22:54:32.085Z,101914.46
2023-01-27T22:57:01.126Z,101921.23
2023-01-27T22:59:29.046Z,101912.76
2023-01-27T23:01:56.791Z,101911.06
2023-01-27T23:04:24.671Z,101914.98
2023-01-27T23:06:52.422Z,101917.21
2023-01-27T23:09:20.248Z,101911.06
2023-01-27T23:11:48.167Z,101918.41
2023-01-27T23:14:16.055Z,101915.84
2023-01-27T23:16:43.875Z,101918.13
2023-01-27T23:19:14.566Z,101914.76
2023-01-27T23:21:42.338Z,101918.65
2023-01-27T23:24:10.168Z,101922.57
2023-01-27T23:26:38.059Z,101916.36
2023-01-27T23:29:19.338Z,101920.02
2023-01-27T23:31:51.946Z,101921.72
2023-01-27T23:34:20.037Z,101920.02
2023-01-27T23:36:48.725Z,101928.72
2023-01-27T23:39:17.195Z,101921.46
2023-01-27T23:41:44.921Z,101926.10
2023-01-27T23:44:12.740Z,101920.73
2023-01-27T23:46:40.752Z,101929.34
2023-01-27T23:49:09.126Z,101927.15
2023-01-27T23:51:36.962Z,101928.00
2023-01-27T23:54:04.882Z,101929.11
2023-01-27T23:56:32.716Z,101919.79
2023-01-27T23:59:00.457Z,101919.79
